Bronson, Ohio
Current Conditions -  °F | °C
As of 4:53 AM on Tuesday 21 Oct 2014 (Local Time) from KLPR Reporting Station
Overcast Overcast  
Wind Chill: 51°   Ceiling: 1500
Heat Index: 51°   Visibility: 8mi
Dew Point: 49°   Wind: 10mph
Humidity: 92%   Direction: 350°N
Pressure: 29.86"   Gusts: NA
Location:  41.2186°N, 82.5851°W
Report Text: KLPR 210853Z AUTO 35009KT 8SM SCT010 BKN015 OVC026 11/09 A2986 RMK AO2 SLP114 60002 T01060094 53007 TSNO
Loading
Personal Weather Stations






























Interactive Weather Map
Tropical Storm Tracking
New forecast layout! Learn more

10-Day Weather Forecast

Advertisements
Track Severe Weather on mobile